createdAt,value
2023-05-22T00:00:27.979Z,24.87
2023-05-22T00:01:28.107Z,24.86
2023-05-22T00:02:28.152Z,24.86
2023-05-22T00:03:28.142Z,24.86
2023-05-22T00:04:28.132Z,24.86
2023-05-22T00:05:28.215Z,24.85
2023-05-22T00:06:28.185Z,24.85
2023-05-22T00:07:28.310Z,24.84
2023-05-22T00:08:29.766Z,24.85
2023-05-22T00:09:28.313Z,24.84
2023-05-22T00:10:28.371Z,24.84
2023-05-22T00:11:28.413Z,24.83
2023-05-22T00:12:28.446Z,24.83
2023-05-22T00:13:28.490Z,24.83
2023-05-22T00:14:28.547Z,24.83
2023-05-22T00:15:28.583Z,24.83
2023-05-22T00:16:28.693Z,24.82
2023-05-22T00:17:28.716Z,24.82
2023-05-22T00:18:28.692Z,24.82
2023-05-22T00:19:28.785Z,24.81
2023-05-22T00:20:28.757Z,24.81
2023-05-22T00:21:28.818Z,24.80
2023-05-22T00:22:28.832Z,24.80
2023-05-22T00:23:28.900Z,24.80
2023-05-22T00:24:28.944Z,24.80
2023-05-22T00:25:28.965Z,24.79
2023-05-22T00:26:29.034Z,24.79
2023-05-22T00:27:29.079Z,24.78
2023-05-22T00:28:29.156Z,24.78
2023-05-22T00:29:29.175Z,24.77
2023-05-22T00:30:29.208Z,24.77
2023-05-22T00:31:29.281Z,24.76
2023-05-22T00:32:29.367Z,24.77
2023-05-22T00:33:29.376Z,24.76
2023-05-22T00:34:29.466Z,24.76
2023-05-22T00:35:29.463Z,24.76
2023-05-22T00:36:29.573Z,24.75
2023-05-22T00:37:29.625Z,24.75
2023-05-22T00:38:29.690Z,24.75
2023-05-22T00:39:29.728Z,24.76
2023-05-22T00:40:29.762Z,24.75
2023-05-22T00:41:29.802Z,24.74
2023-05-22T00:42:29.849Z,24.76
2023-05-22T00:43:29.920Z,24.75
2023-05-22T00:44:29.971Z,24.74
2023-05-22T00:45:30.012Z,24.74
2023-05-22T00:46:30.118Z,24.74
2023-05-22T00:47:30.139Z,24.73
2023-05-22T00:48:30.164Z,24.74
2023-05-22T00:49:30.213Z,24.74
2023-05-22T00:50:30.273Z,24.74
2023-05-22T00:51:30.332Z,24.73
2023-05-22T00:52:30.360Z,24.73
2023-05-22T00:53:30.443Z,24.73
2023-05-22T00:54:30.469Z,24.73
2023-05-22T00:55:30.563Z,24.72
2023-05-22T00:56:30.571Z,24.72
2023-05-22T00:57:30.687Z,24.72
2023-05-22T00:58:30.677Z,24.72
2023-05-22T00:59:30.740Z,24.72
2023-05-22T01:00:30.823Z,24.71
2023-05-22T01:01:30.876Z,24.71
2023-05-22T01:02:30.944Z,24.71
2023-05-22T01:03:31.034Z,24.71
2023-05-22T01:04:31.021Z,24.71
2023-05-22T01:05:31.058Z,24.71
2023-05-22T01:06:31.091Z,24.71
2023-05-22T01:07:31.157Z,24.70
2023-05-22T01:08:31.208Z,24.71
2023-05-22T01:09:31.331Z,24.70
2023-05-22T01:10:31.303Z,24.70
2023-05-22T01:11:31.377Z,24.71
2023-05-22T01:12:31.407Z,24.70
2023-05-22T01:13:31.460Z,24.69
2023-05-22T01:14:31.499Z,24.69
2023-05-22T01:15:31.575Z,24.69
2023-05-22T01:16:31.662Z,24.69
2023-05-22T01:17:31.719Z,24.69
2023-05-22T01:18:31.693Z,24.68
2023-05-22T01:19:31.960Z,24.68
2023-05-22T01:20:31.835Z,24.68
2023-05-22T01:21:31.885Z,24.69
2023-05-22T01:22:31.933Z,24.68
2023-05-22T01:23:31.982Z,24.68
2023-05-22T01:24:32.006Z,24.68
2023-05-22T01:25:32.101Z,24.67
2023-05-22T01:26:32.145Z,24.68
2023-05-22T01:27:32.159Z,24.67
2023-05-22T01:28:32.208Z,24.68
2023-05-22T01:29:32.280Z,24.67
2023-05-22T01:30:32.327Z,24.67
2023-05-22T01:31:32.376Z,24.66
2023-05-22T01:32:32.500Z,24.66
2023-05-22T01:33:32.570Z,24.66
2023-05-22T01:34:32.518Z,24.65
2023-05-22T01:35:32.564Z,24.66
2023-05-22T01:36:32.615Z,24.65
2023-05-22T01:37:32.664Z,24.65
2023-05-22T01:38:32.721Z,24.64
2023-05-22T01:39:32.779Z,24.64
2023-05-22T01:40:32.803Z,24.64
2023-05-22T01:41:32.877Z,24.64
2023-05-22T01:42:32.924Z,24.64
2023-05-22T01:43:32.988Z,24.64
2023-05-22T01:44:33.005Z,24.64
2023-05-22T01:45:33.089Z,24.63
2023-05-22T01:46:33.128Z,24.64
2023-05-22T01:47:33.183Z,24.63
2023-05-22T01:48:33.254Z,24.63
2023-05-22T01:49:33.262Z,24.63
2023-05-22T01:50:33.379Z,24.63
2023-05-22T01:51:33.455Z,24.62
2023-05-22T01:52:33.472Z,24.62
2023-05-22T01:53:33.505Z,24.62
2023-05-22T01:54:33.574Z,24.62
2023-05-22T01:55:33.635Z,24.62
2023-05-22T01:56:33.643Z,24.62
2023-05-22T01:57:33.701Z,24.62
2023-05-22T01:58:33.777Z,24.62
2023-05-22T01:59:33.811Z,24.61
2023-05-22T02:00:33.867Z,24.62
2023-05-22T02:01:33.975Z,24.62
2023-05-22T02:02:34.044Z,24.62
2023-05-22T02:03:34.012Z,24.61
2023-05-22T02:04:34.058Z,24.62
2023-05-22T02:05:34.114Z,24.61
2023-05-22T02:06:34.169Z,24.61
2023-05-22T02:07:34.243Z,24.61
2023-05-22T02:08:34.258Z,24.59
2023-05-22T02:09:34.328Z,24.60
2023-05-22T02:10:34.352Z,24.59
2023-05-22T02:11:34.404Z,24.58
2023-05-22T02:12:34.488Z,24.58
2023-05-22T02:13:34.535Z,24.58
2023-05-22T02:14:34.604Z,24.57
2023-05-22T02:15:34.697Z,24.57
2023-05-22T02:16:34.679Z,24.57
2023-05-22T02:17:34.828Z,24.57
2023-05-22T02:18:34.776Z,24.57
2023-05-22T02:19:34.917Z,24.57
2023-05-22T02:20:34.884Z,24.56
2023-05-22T02:21:34.954Z,24.56
2023-05-22T02:22:35.014Z,24.55
2023-05-22T02:23:35.057Z,24.55
2023-05-22T02:24:35.111Z,24.56
2023-05-22T02:25:35.215Z,24.54
2023-05-22T02:26:35.238Z,24.55
2023-05-22T02:27:35.267Z,24.55
2023-05-22T02:28:35.311Z,24.54
2023-05-22T02:29:35.375Z,24.54
2023-05-22T02:30:35.472Z,24.54
2023-05-22T02:31:35.508Z,24.54
2023-05-22T02:32:35.538Z,24.54
2023-05-22T02:33:35.588Z,24.53
2023-05-22T02:34:35.624Z,24.53
2023-05-22T02:35:35.709Z,24.53
2023-05-22T02:36:35.738Z,24.53
2023-05-22T02:37:35.789Z,24.52
2023-05-22T02:38:35.866Z,24.52
2023-05-22T02:39:35.909Z,24.52
2023-05-22T02:40:35.971Z,24.52
2023-05-22T02:41:36.093Z,24.52
2023-05-22T02:42:36.122Z,24.52
2023-05-22T02:43:36.144Z,24.52
2023-05-22T02:44:36.230Z,24.52
2023-05-22T02:45:36.265Z,24.52
2023-05-22T02:46:36.354Z,24.52
2023-05-22T02:47:36.403Z,24.52
2023-05-22T02:48:36.436Z,24.51
2023-05-22T02:49:36.492Z,24.51
2023-05-22T02:50:36.612Z,24.51
2023-05-22T02:51:36.596Z,24.50
2023-05-22T02:52:36.678Z,24.50
2023-05-22T02:53:36.754Z,24.50
2023-05-22T02:54:36.806Z,24.50
2023-05-22T02:55:36.863Z,24.49
2023-05-22T02:56:36.932Z,24.49
2023-05-22T02:57:37.035Z,24.50
2023-05-22T02:58:37.033Z,24.49
2023-05-22T02:59:37.121Z,24.49
2023-05-22T03:00:37.220Z,24.49
2023-05-22T03:01:37.293Z,24.49
2023-05-22T03:02:37.367Z,24.49
2023-05-22T03:03:37.457Z,24.49
2023-05-22T03:04:37.418Z,24.48
2023-05-22T03:05:37.495Z,24.49
2023-05-22T03:06:37.536Z,24.48
2023-05-22T03:07:37.569Z,24.48
2023-05-22T03:08:37.645Z,24.48
2023-05-22T03:09:37.699Z,24.48
2023-05-22T03:10:37.973Z,24.46
2023-05-22T03:11:37.793Z,24.48
2023-05-22T03:12:37.889Z,24.47
2023-05-22T03:13:37.924Z,24.47
2023-05-22T03:14:38.011Z,24.47
2023-05-22T03:15:38.052Z,24.46
2023-05-22T03:16:38.180Z,24.45
2023-05-22T03:17:38.225Z,24.45
2023-05-22T03:18:38.214Z,24.45
2023-05-22T03:19:38.292Z,24.45
2023-05-22T03:20:38.604Z,24.44
2023-05-22T03:21:38.393Z,24.44
2023-05-22T03:22:38.456Z,24.43
2023-05-22T03:23:38.511Z,24.43
2023-05-22T03:24:38.607Z,24.43
2023-05-22T03:25:38.608Z,24.43
2023-05-22T03:26:38.656Z,24.43
2023-05-22T03:27:38.686Z,24.42
2023-05-22T03:28:38.772Z,24.42
2023-05-22T03:29:38.814Z,24.41
2023-05-22T03:30:38.962Z,24.42
2023-05-22T03:31:38.909Z,24.41
2023-05-22T03:32:39.028Z,24.40
2023-05-22T03:33:39.048Z,24.40
2023-05-22T03:34:39.069Z,24.40
2023-05-22T03:35:39.128Z,24.39
2023-05-22T03:36:39.183Z,24.40
2023-05-22T03:37:39.239Z,24.40
2023-05-22T03:38:39.263Z,24.38
2023-05-22T03:39:39.360Z,24.39
2023-05-22T03:40:39.517Z,24.39
2023-05-22T03:41:39.469Z,24.39
2023-05-22T03:42:39.510Z,24.38
2023-05-22T03:43:39.553Z,24.38
2023-05-22T03:44:39.633Z,24.38
2023-05-22T03:45:39.744Z,24.38
2023-05-22T03:46:39.784Z,24.38
2023-05-22T03:47:39.870Z,24.38
2023-05-22T03:48:39.868Z,24.39
2023-05-22T03:49:39.905Z,24.39
2023-05-22T03:50:40.187Z,24.38
2023-05-22T03:51:40.040Z,24.38
2023-05-22T03:52:40.083Z,24.38
2023-05-22T03:53:40.116Z,24.37
2023-05-22T03:54:40.153Z,24.38
2023-05-22T03:55:40.226Z,24.38
2023-05-22T03:56:40.267Z,24.38
2023-05-22T03:57:40.314Z,24.37
2023-05-22T03:58:40.341Z,24.38
2023-05-22T03:59:40.358Z,24.38
2023-05-22T04:00:40.502Z,24.38
2023-05-22T04:01:40.436Z,24.37
2023-05-22T04:02:40.488Z,24.37
2023-05-22T04:03:40.863Z,24.37
2023-05-22T04:04:40.509Z,24.37
2023-05-22T04:05:40.477Z,24.37
2023-05-22T04:06:40.468Z,24.38
2023-05-22T04:07:40.463Z,24.37
2023-05-22T04:08:40.469Z,24.38
2023-05-22T04:09:40.423Z,24.36
2023-05-22T04:10:40.576Z,24.36
2023-05-22T04:11:40.541Z,24.36
2023-05-22T04:12:40.585Z,24.35
2023-05-22T04:13:40.647Z,24.36
2023-05-22T04:14:40.686Z,24.36
2023-05-22T04:15:40.802Z,24.35
2023-05-22T04:16:40.776Z,24.35
2023-05-22T04:17:40.795Z,24.35
2023-05-22T04:18:40.794Z,24.35
2023-05-22T04:19:40.775Z,24.35
2023-05-22T04:20:41.130Z,24.34
2023-05-22T04:21:40.844Z,24.34
2023-05-22T04:22:40.847Z,24.35
2023-05-22T04:23:40.911Z,24.35
2023-05-22T04:24:40.901Z,24.34
2023-05-22T04:25:40.956Z,24.34
2023-05-22T04:26:42.437Z,24.34
2023-05-22T04:27:41.025Z,24.34
2023-05-22T04:28:41.037Z,24.35
2023-05-22T04:29:41.058Z,24.34
2023-05-22T04:30:41.311Z,24.35
2023-05-22T04:31:41.201Z,24.34
2023-05-22T04:32:41.193Z,24.35
2023-05-22T04:33:41.179Z,24.34
2023-05-22T04:34:41.200Z,24.35
2023-05-22T04:35:41.288Z,24.35
2023-05-22T04:36:41.262Z,24.35
2023-05-22T04:37:41.288Z,24.37
2023-05-22T04:38:41.378Z,24.36
2023-05-22T04:39:41.362Z,24.35
2023-05-22T04:40:41.586Z,24.35
2023-05-22T04:41:41.440Z,24.36
2023-05-22T04:42:41.472Z,24.36
2023-05-22T04:43:41.507Z,24.36
2023-05-22T04:44:41.588Z,24.36
2023-05-22T04:45:41.557Z,24.36
2023-05-22T04:46:41.619Z,24.35
2023-05-22T04:47:41.811Z,24.36
2023-05-22T04:48:41.662Z,24.36
2023-05-22T04:49:41.706Z,24.36
2023-05-22T04:50:42.006Z,24.36
2023-05-22T04:51:41.838Z,24.36
2023-05-22T04:52:41.904Z,24.36
2023-05-22T04:53:41.936Z,24.35
2023-05-22T04:54:41.923Z,24.36
2023-05-22T04:55:41.977Z,24.35
2023-05-22T04:56:42.003Z,24.36
2023-05-22T04:57:42.031Z,24.36
2023-05-22T04:58:42.024Z,24.36
2023-05-22T04:59:42.039Z,24.37
2023-05-22T05:00:42.378Z,24.37
2023-05-22T05:01:42.157Z,24.37
2023-05-22T05:02:42.147Z,24.38
2023-05-22T05:03:42.199Z,24.38
2023-05-22T05:04:42.206Z,24.37
2023-05-22T05:05:42.207Z,24.37
2023-05-22T05:06:42.250Z,24.36
2023-05-22T05:07:42.310Z,24.36
2023-05-22T05:08:42.420Z,24.37
2023-05-22T05:09:42.450Z,24.36
2023-05-22T05:10:42.533Z,24.36
2023-05-22T05:11:42.554Z,24.37
2023-05-22T05:12:42.624Z,24.36
2023-05-22T05:13:42.698Z,24.36
2023-05-22T05:14:42.725Z,24.36
2023-05-22T05:15:42.811Z,24.36
2023-05-22T05:16:42.875Z,24.36
2023-05-22T05:17:42.978Z,24.36
2023-05-22T05:18:43.000Z,24.35
2023-05-22T05:19:43.154Z,24.36
2023-05-22T05:20:43.102Z,24.35
2023-05-22T05:21:43.174Z,24.35
2023-05-22T05:22:43.245Z,24.35
2023-05-22T05:23:43.283Z,24.34
2023-05-22T05:24:43.364Z,24.35
2023-05-22T05:25:43.429Z,24.35
2023-05-22T05:26:43.440Z,24.36
2023-05-22T05:27:43.493Z,24.36
2023-05-22T05:28:43.534Z,24.36
2023-05-22T05:29:43.542Z,24.36
2023-05-22T05:30:43.571Z,24.36
2023-05-22T05:31:43.652Z,24.36
2023-05-22T05:32:43.675Z,24.36
2023-05-22T05:33:43.652Z,24.36
2023-05-22T05:34:43.670Z,24.36
2023-05-22T05:35:43.674Z,24.36
2023-05-22T05:36:43.696Z,24.34
2023-05-22T05:37:43.699Z,24.34
2023-05-22T05:38:43.734Z,24.37
2023-05-22T05:39:43.752Z,24.37
2023-05-22T05:40:43.764Z,24.37
2023-05-22T05:41:43.863Z,24.38
2023-05-22T05:42:43.905Z,24.39
2023-05-22T05:43:43.971Z,24.42
2023-05-22T05:44:44.006Z,24.44
2023-05-22T05:45:44.095Z,24.45
2023-05-22T05:46:44.118Z,24.48
2023-05-22T05:47:44.187Z,24.50
2023-05-22T05:48:44.206Z,24.52
2023-05-22T05:49:44.273Z,24.54
2023-05-22T05:50:44.291Z,24.58
2023-05-22T05:51:44.347Z,24.58
2023-05-22T05:52:44.406Z,24.60
2023-05-22T05:53:44.519Z,24.61
2023-05-22T05:54:44.493Z,24.65
2023-05-22T05:55:44.525Z,24.68
2023-05-22T05:56:44.593Z,24.69
2023-05-22T05:57:44.638Z,24.71
2023-05-22T05:58:44.644Z,24.74
2023-05-22T05:59:44.683Z,24.76
2023-05-22T06:00:44.731Z,24.79
2023-05-22T06:01:44.739Z,24.80
2023-05-22T06:02:44.840Z,24.83
2023-05-22T06:03:44.924Z,24.84
2023-05-22T06:04:44.840Z,24.86
2023-05-22T06:05:44.946Z,24.85
2023-05-22T06:06:44.854Z,24.87
2023-05-22T06:07:44.863Z,24.90
2023-05-22T06:08:44.915Z,24.93
2023-05-22T06:09:45.036Z,24.96
2023-05-22T06:10:44.955Z,24.98
2023-05-22T06:11:44.980Z,25.01
2023-05-22T06:12:44.971Z,25.03
2023-05-22T06:13:44.995Z,25.04
2023-05-22T06:14:45.004Z,25.06
2023-05-22T06:15:45.016Z,25.08
2023-05-22T06:16:45.145Z,25.09
2023-05-22T06:17:45.109Z,25.09
2023-05-22T06:18:45.076Z,25.13
2023-05-22T06:19:45.089Z,25.13
2023-05-22T06:20:45.100Z,25.15
2023-05-22T06:21:45.108Z,25.17
2023-05-22T06:22:45.092Z,25.19
2023-05-22T06:23:45.044Z,25.21
2023-05-22T06:24:45.091Z,25.23
2023-05-22T06:25:45.066Z,25.23
2023-05-22T06:26:45.053Z,25.26
2023-05-22T06:27:45.085Z,25.27
2023-05-22T06:28:45.053Z,25.29
2023-05-22T06:29:45.063Z,25.30
2023-05-22T06:30:45.313Z,25.31
2023-05-22T06:31:45.177Z,25.34
2023-05-22T06:32:45.293Z,25.34
2023-05-22T06:33:45.336Z,25.35
2023-05-22T06:34:45.209Z,25.36
2023-05-22T06:35:45.264Z,25.37
2023-05-22T06:36:45.301Z,25.38
2023-05-22T06:37:45.312Z,25.39
2023-05-22T06:38:45.338Z,25.39
2023-05-22T06:39:45.326Z,25.41
2023-05-22T06:40:45.389Z,25.41
2023-05-22T06:41:45.430Z,25.43
2023-05-22T06:42:45.501Z,25.44
2023-05-22T06:43:45.570Z,25.45
2023-05-22T06:44:45.623Z,25.46
2023-05-22T06:45:45.712Z,25.46
2023-05-22T06:46:45.769Z,25.45
2023-05-22T06:47:45.804Z,25.46
2023-05-22T06:48:45.865Z,25.43
2023-05-22T06:49:45.922Z,25.44
2023-05-22T06:50:45.946Z,25.47
2023-05-22T06:51:46.026Z,25.49
2023-05-22T06:52:46.092Z,25.50
2023-05-22T06:53:46.151Z,25.51
2023-05-22T06:54:46.207Z,25.52
2023-05-22T06:55:46.259Z,25.52
2023-05-22T06:56:46.285Z,25.52
2023-05-22T06:57:46.368Z,25.52
2023-05-22T06:58:46.456Z,25.52
2023-05-22T06:59:46.544Z,25.53
2023-05-22T07:00:53.593Z,25.52
2023-05-22T07:01:46.595Z,25.52
2023-05-22T07:02:46.591Z,25.53
2023-05-22T07:03:46.561Z,25.53
2023-05-22T07:04:46.504Z,25.53
2023-05-22T07:05:46.566Z,25.55
2023-05-22T07:06:46.486Z,25.54
2023-05-22T07:07:46.495Z,25.54
2023-05-22T07:08:46.525Z,25.55
2023-05-22T07:09:46.489Z,25.55
2023-05-22T07:10:46.524Z,25.56
2023-05-22T07:11:46.962Z,25.57
2023-05-22T07:12:46.471Z,25.57
2023-05-22T07:13:46.489Z,25.57
2023-05-22T07:14:46.483Z,25.58
2023-05-22T07:15:46.655Z,25.59
2023-05-22T07:16:46.531Z,25.58
2023-05-22T07:17:46.565Z,25.60
2023-05-22T07:18:46.496Z,25.60
2023-05-22T07:19:46.414Z,25.61
2023-05-22T07:20:46.421Z,25.62
2023-05-22T07:21:46.384Z,25.63
2023-05-22T07:22:46.405Z,25.63
2023-05-22T07:23:46.385Z,25.63
2023-05-22T07:24:46.388Z,25.64
2023-05-22T07:25:46.447Z,25.65
2023-05-22T07:26:46.691Z,25.65
2023-05-22T07:27:46.526Z,25.66
2023-05-22T07:28:46.557Z,25.66
2023-05-22T07:29:46.811Z,25.67
2023-05-22T07:30:46.672Z,25.66
2023-05-22T07:31:46.770Z,25.67
2023-05-22T07:32:46.774Z,25.67
2023-05-22T07:33:46.792Z,25.68
2023-05-22T07:34:46.862Z,25.69
2023-05-22T07:35:46.900Z,25.70
2023-05-22T07:36:46.971Z,25.70
2023-05-22T07:37:47.043Z,25.71
2023-05-22T07:38:47.052Z,25.71
2023-05-22T07:39:47.108Z,25.72
2023-05-22T07:40:47.114Z,25.73
2023-05-22T07:41:47.241Z,25.73
2023-05-22T07:42:47.221Z,25.68
2023-05-22T07:43:47.290Z,25.68
2023-05-22T07:44:47.325Z,25.69
2023-05-22T07:45:47.460Z,25.72
2023-05-22T07:46:47.483Z,25.73
2023-05-22T07:47:47.460Z,25.74
2023-05-22T07:48:47.510Z,25.71
2023-05-22T07:49:47.538Z,25.69
2023-05-22T07:50:47.570Z,25.71
2023-05-22T07:51:47.605Z,25.73
2023-05-22T07:52:47.657Z,25.74
2023-05-22T07:53:47.675Z,25.78
2023-05-22T07:54:47.735Z,25.80
2023-05-22T07:55:47.746Z,25.82
2023-05-22T07:56:47.778Z,25.84
2023-05-22T07:57:47.842Z,25.86
2023-05-22T07:58:47.910Z,25.87
2023-05-22T07:59:47.908Z,25.88
2023-05-22T08:00:47.955Z,25.92
2023-05-22T08:01:48.028Z,25.94
2023-05-22T08:02:48.140Z,25.97
2023-05-22T08:03:48.209Z,25.98
2023-05-22T08:04:48.121Z,25.99
2023-05-22T08:05:48.506Z,26.01
2023-05-22T08:06:48.153Z,26.02
2023-05-22T08:07:48.236Z,26.04
2023-05-22T08:08:48.243Z,26.05
2023-05-22T08:09:48.245Z,26.08
2023-05-22T08:11:03.214Z,26.09
2023-05-22T08:11:49.312Z,26.08
2023-05-22T08:12:48.300Z,26.10
2023-05-22T08:13:48.290Z,26.12
2023-05-22T08:14:48.300Z,26.13
2023-05-22T08:15:48.250Z,26.14
2023-05-22T08:16:48.340Z,26.15
2023-05-22T08:17:48.298Z,26.15
2023-05-22T08:18:48.268Z,26.17
2023-05-22T08:19:48.321Z,26.18
2023-05-22T08:20:48.228Z,26.20
2023-05-22T08:21:48.233Z,26.21
2023-05-22T08:22:48.201Z,26.22
2023-05-22T08:23:48.205Z,26.22
2023-05-22T08:24:48.201Z,26.23
2023-05-22T08:25:48.216Z,26.24
2023-05-22T08:26:48.169Z,26.25
2023-05-22T08:27:48.197Z,26.26
2023-05-22T08:28:48.194Z,26.27
2023-05-22T08:29:48.187Z,26.30
2023-05-22T08:30:48.147Z,26.30
2023-05-22T08:31:48.213Z,26.31
2023-05-22T08:32:48.180Z,26.32
2023-05-22T08:33:48.436Z,26.32
2023-05-22T08:34:48.297Z,26.33
2023-05-22T08:35:48.240Z,26.34
2023-05-22T08:36:48.275Z,26.32
2023-05-22T08:37:48.306Z,26.33
2023-05-22T08:38:48.343Z,26.34
2023-05-22T08:39:48.275Z,26.35
2023-05-22T08:40:48.428Z,26.38
2023-05-22T08:41:48.282Z,26.40
2023-05-22T08:42:48.389Z,26.41
2023-05-22T08:43:48.344Z,26.41
2023-05-22T08:44:48.301Z,26.41
2023-05-22T08:45:48.295Z,26.40
2023-05-22T08:46:48.313Z,26.39
2023-05-22T08:47:48.349Z,26.38
2023-05-22T08:48:48.476Z,26.37
2023-05-22T08:49:48.832Z,26.37
2023-05-22T08:50:48.472Z,26.35
2023-05-22T08:51:48.474Z,26.36
2023-05-22T08:52:48.464Z,26.35
2023-05-22T08:53:48.434Z,26.34
2023-05-22T08:54:48.446Z,26.34
2023-05-22T08:55:48.448Z,26.32
2023-05-22T08:56:56.139Z,26.31
2023-05-22T08:57:49.576Z,26.30
2023-05-22T08:58:48.663Z,26.29
2023-05-22T08:59:48.524Z,26.28
2023-05-22T09:00:48.565Z,26.26
2023-05-22T09:01:48.592Z,26.26
2023-05-22T09:02:48.598Z,26.24
2023-05-22T09:03:48.580Z,26.23
2023-05-22T09:04:48.598Z,26.22
2023-05-22T09:05:48.503Z,26.20
2023-05-22T09:06:48.471Z,26.18
2023-05-22T09:07:48.480Z,26.17
2023-05-22T09:08:50.036Z,26.16
2023-05-22T09:09:48.463Z,26.15
2023-05-22T09:10:48.479Z,26.14
2023-05-22T09:11:48.446Z,26.14
2023-05-22T09:12:48.450Z,26.12
2023-05-22T09:13:48.444Z,26.12
2023-05-22T09:14:48.424Z,26.11
2023-05-22T09:15:48.425Z,26.10
2023-05-22T09:16:48.441Z,26.10
2023-05-22T09:17:48.453Z,26.10
2023-05-22T09:18:48.451Z,26.09
2023-05-22T09:19:48.371Z,26.09
2023-05-22T09:20:48.403Z,26.08
2023-05-22T09:21:48.403Z,26.08
2023-05-22T09:22:48.371Z,26.07
2023-05-22T09:23:48.375Z,26.07
2023-05-22T09:24:48.348Z,26.07
2023-05-22T09:25:48.375Z,26.07
2023-05-22T09:26:48.428Z,26.06
2023-05-22T09:27:48.345Z,26.06
2023-05-22T09:28:48.326Z,26.06
2023-05-22T09:29:48.314Z,26.05
2023-05-22T09:30:48.362Z,26.06
2023-05-22T09:31:48.336Z,26.07
2023-05-22T09:32:48.354Z,26.06
2023-05-22T09:33:48.278Z,26.05
2023-05-22T09:34:48.297Z,26.05
2023-05-22T09:35:48.298Z,26.06
2023-05-22T09:36:48.252Z,26.05
2023-05-22T09:37:48.385Z,26.06
2023-05-22T09:38:48.257Z,26.06
2023-05-22T09:39:48.238Z,26.05
2023-05-22T09:40:48.262Z,26.05
2023-05-22T09:41:48.235Z,26.05
2023-05-22T09:42:48.328Z,26.04
2023-05-22T09:43:48.214Z,26.00
2023-05-22T09:44:48.184Z,25.99
2023-05-22T09:45:48.203Z,26.01
2023-05-22T09:46:48.448Z,26.02
2023-05-22T09:47:48.215Z,26.04
2023-05-22T09:48:48.190Z,26.06
2023-05-22T09:49:48.164Z,26.08
2023-05-22T09:50:48.237Z,26.14
2023-05-22T09:51:48.528Z,26.16
2023-05-22T09:52:48.166Z,26.18
2023-05-22T09:53:48.226Z,26.21
2023-05-22T09:54:48.148Z,26.24
2023-05-22T09:55:48.153Z,26.28
2023-05-22T09:56:48.171Z,26.30
2023-05-22T09:57:48.147Z,26.31
2023-05-22T09:58:48.114Z,26.35
2023-05-22T09:59:48.148Z,26.38
2023-05-22T10:00:48.131Z,26.41
2023-05-22T10:01:48.279Z,26.42
2023-05-22T10:02:48.203Z,26.45
2023-05-22T10:03:49.388Z,26.47
2023-05-22T10:04:48.163Z,26.50
2023-05-22T10:05:48.120Z,26.51
2023-05-22T10:06:48.080Z,26.53
2023-05-22T10:07:48.067Z,26.55
2023-05-22T10:08:48.066Z,26.56
2023-05-22T10:09:48.083Z,26.57
2023-05-22T10:10:48.053Z,26.58
2023-05-22T10:11:48.055Z,26.61
2023-05-22T10:12:48.048Z,26.60
2023-05-22T10:13:48.016Z,26.62
2023-05-22T10:14:48.049Z,26.63
2023-05-22T10:15:48.059Z,26.64
2023-05-22T10:16:48.046Z,26.64
2023-05-22T10:17:48.021Z,26.66
2023-05-22T10:18:48.056Z,26.69
2023-05-22T10:19:48.049Z,26.70
2023-05-22T10:20:48.049Z,26.71
2023-05-22T10:21:48.136Z,26.73
2023-05-22T10:22:48.156Z,26.74
2023-05-22T10:23:48.215Z,26.75
2023-05-22T10:24:48.267Z,26.77
2023-05-22T10:25:48.329Z,26.78
2023-05-22T10:26:48.367Z,26.78
2023-05-22T10:27:48.406Z,26.80
2023-05-22T10:28:48.455Z,26.80
2023-05-22T10:29:48.507Z,26.81
2023-05-22T10:30:48.537Z,26.82
2023-05-22T10:31:48.587Z,26.81
2023-05-22T10:32:48.738Z,26.83
2023-05-22T10:33:48.774Z,26.83
2023-05-22T10:34:48.705Z,26.82
2023-05-22T10:35:48.763Z,26.81
2023-05-22T10:36:48.822Z,26.79
2023-05-22T10:37:48.824Z,26.79
2023-05-22T10:38:48.885Z,26.80
2023-05-22T10:39:48.896Z,26.81
2023-05-22T10:40:48.949Z,26.82
2023-05-22T10:41:49.044Z,26.83
2023-05-22T10:42:49.000Z,26.87
2023-05-22T10:43:49.041Z,26.87
2023-05-22T10:44:49.075Z,26.89
2023-05-22T10:45:49.137Z,26.90
2023-05-22T10:46:49.154Z,26.91
2023-05-22T10:47:49.207Z,26.92
2023-05-22T10:48:49.189Z,26.93
2023-05-22T10:49:49.234Z,26.94
2023-05-22T10:50:49.255Z,26.95
2023-05-22T10:51:49.251Z,26.96
2023-05-22T10:52:49.287Z,26.99
2023-05-22T10:53:49.333Z,27.00
2023-05-22T10:54:49.331Z,27.02
2023-05-22T10:55:49.362Z,27.02
2023-05-22T10:56:49.376Z,27.03
2023-05-22T10:57:49.495Z,27.04
2023-05-22T10:58:49.406Z,27.04
2023-05-22T10:59:49.409Z,27.06
2023-05-22T11:00:49.369Z,27.06
2023-05-22T11:01:49.413Z,27.06
2023-05-22T11:02:49.522Z,27.08
2023-05-22T11:03:49.478Z,27.09
2023-05-22T11:04:49.466Z,27.10
2023-05-22T11:05:49.417Z,27.11
2023-05-22T11:06:49.473Z,27.12
2023-05-22T11:07:49.447Z,27.12
2023-05-22T11:08:49.493Z,27.13
2023-05-22T11:09:49.416Z,27.14
2023-05-22T11:10:49.414Z,27.14
2023-05-22T11:11:49.420Z,27.15
2023-05-22T11:12:49.454Z,27.17
2023-05-22T11:13:49.514Z,27.18
2023-05-22T11:14:49.485Z,27.18
2023-05-22T11:15:49.464Z,27.20
2023-05-22T11:16:49.783Z,27.21
2023-05-22T11:17:50.251Z,27.22
2023-05-22T11:18:49.653Z,27.24
2023-05-22T11:19:49.840Z,27.25
2023-05-22T11:20:49.814Z,27.27
2023-05-22T11:21:49.961Z,27.28
2023-05-22T11:22:49.799Z,27.29
2023-05-22T11:23:49.868Z,27.29
2023-05-22T11:24:49.997Z,27.31
2023-05-22T11:25:50.011Z,27.32
2023-05-22T11:26:50.046Z,27.34
2023-05-22T11:27:50.115Z,27.35
2023-05-22T11:28:50.172Z,27.36
2023-05-22T11:29:50.300Z,27.37
2023-05-22T11:30:50.305Z,27.39
2023-05-22T11:31:50.356Z,27.39
2023-05-22T11:32:50.424Z,27.42
2023-05-22T11:33:50.451Z,27.42
2023-05-22T11:34:50.545Z,27.42
2023-05-22T11:35:50.547Z,27.44
2023-05-22T11:36:50.610Z,27.45
2023-05-22T11:37:50.633Z,27.45
2023-05-22T11:38:50.690Z,27.49
2023-05-22T11:39:50.735Z,27.49
2023-05-22T11:40:50.798Z,27.49
2023-05-22T11:41:50.858Z,27.49
2023-05-22T11:42:50.910Z,27.49
2023-05-22T11:43:50.999Z,27.50
2023-05-22T11:44:51.016Z,27.50
2023-05-22T11:45:51.164Z,27.49
2023-05-22T11:46:51.166Z,27.50
2023-05-22T11:47:51.268Z,27.50
2023-05-22T11:48:51.228Z,27.51
2023-05-22T11:49:51.300Z,27.51
2023-05-22T11:50:51.354Z,27.52
2023-05-22T11:51:51.421Z,27.53
2023-05-22T11:52:51.454Z,27.54
2023-05-22T11:53:51.484Z,27.55
2023-05-22T11:54:51.564Z,27.55
2023-05-22T11:55:51.641Z,27.56
2023-05-22T11:56:51.664Z,27.58
2023-05-22T11:57:51.712Z,27.58
2023-05-22T11:58:51.812Z,27.59
2023-05-22T11:59:51.821Z,27.61
2023-05-22T12:00:51.894Z,27.62
2023-05-22T12:01:52.001Z,27.64
2023-05-22T12:02:52.047Z,27.66
2023-05-22T12:03:52.082Z,27.65
2023-05-22T12:04:52.103Z,27.67
2023-05-22T12:05:52.103Z,27.68
2023-05-22T12:06:52.245Z,27.69
2023-05-22T12:07:52.169Z,27.68
2023-05-22T12:08:52.177Z,27.69
2023-05-22T12:09:52.225Z,27.69
2023-05-22T12:10:52.247Z,27.71
2023-05-22T12:11:52.264Z,27.72
2023-05-22T12:12:52.352Z,27.74
2023-05-22T12:13:52.343Z,27.74
2023-05-22T12:14:52.411Z,27.76
2023-05-22T12:15:52.410Z,27.76
2023-05-22T12:16:52.571Z,27.77
2023-05-22T12:17:52.637Z,27.78
2023-05-22T12:18:52.573Z,27.79
2023-05-22T12:19:52.500Z,27.80
2023-05-22T12:20:52.553Z,27.81
2023-05-22T12:21:53.229Z,27.82
2023-05-22T12:22:52.595Z,27.84
2023-05-22T12:23:52.661Z,27.84
2023-05-22T12:24:52.620Z,27.86
2023-05-22T12:25:52.691Z,27.87
2023-05-22T12:26:52.662Z,27.88
2023-05-22T12:27:53.120Z,27.89
2023-05-22T12:28:52.701Z,27.91
2023-05-22T12:29:52.763Z,27.92
2023-05-22T12:30:52.747Z,27.93
2023-05-22T12:31:52.761Z,27.94
2023-05-22T12:32:52.836Z,27.96
2023-05-22T12:33:52.889Z,27.98
2023-05-22T12:34:52.792Z,27.98
2023-05-22T12:35:52.814Z,28.01
2023-05-22T12:36:52.813Z,28.02
2023-05-22T12:37:52.841Z,28.03
2023-05-22T12:38:52.866Z,28.05
2023-05-22T12:39:52.874Z,28.07
2023-05-22T12:40:52.892Z,28.09
2023-05-22T12:41:52.909Z,28.11
2023-05-22T12:42:52.961Z,28.12
2023-05-22T12:43:52.986Z,28.13
2023-05-22T12:44:53.004Z,28.14
2023-05-22T12:45:53.054Z,28.15
2023-05-22T12:46:53.123Z,28.15
2023-05-22T12:47:53.131Z,28.16
2023-05-22T12:48:53.110Z,28.18
2023-05-22T12:49:53.275Z,28.17
2023-05-22T12:50:53.195Z,28.18
2023-05-22T12:51:53.218Z,28.17
2023-05-22T12:52:53.238Z,28.18